AXCGGARGarmin  id=247  GPS 72 Software Version 2.50|2140330771
HFDTE230810
HFPLTPilot:UNREGISTERED
HFTZOTimezone:2
HFSITSite:
HPGTYGliderType:
HPGIDGliderID:
HFDTM100DATUM:WGS-1984
HFCIDCOMPETITIONID:
HFCCLCOMPETITIONCLASS:
LXCG     ICON:C:\Program Files\CompeGPS\symbols\IconsPlay\cronos.ico
LXCG     COLOR:000119000
I00
B1545163734698N00107737WA0000000493
B1545223734697N00107736WA0000000492
B1545283734684N00107745WA0000000490
B1545343734669N00107748WA0000000491
B1545403734657N00107756WA0000000481
B1545463734640N00107757WA0000000480
B1545523734629N00107772WA0000000471
B1545583734609N00107779WA0000000472
B1546043734604N00107795WA0000000477
B1546103734613N00107810WA0000000480
B1546163734592N00107803WA0000000483
B1546223734573N00107772WA0000000483
B1546283734572N00107781WA0000000478
B1546343734587N00107789WA0000000474
B1546403734594N00107798WA0000000468
B1546463734599N00107817WA0000000463
B1546523734579N00107813WA0000000459
B1546583734559N00107803WA0000000452
B1547043734536N00107794WA0000000447
B1547103734515N00107786WA0000000446
B1547163734512N00107803WA0000000438
B1547223734532N00107806WA0000000433
B1547283734535N00107821WA0000000428
B1547343734512N00107817WA0000000426
B1547403734489N00107788WA0000000425
B1547463734470N00107761WA0000000421
B1547523734443N00107736WA0000000421
B1547583734422N00107729WA0000000428
B1548043734433N00107733WA0000000433
B1548103734443N00107747WA0000000438
B1548163734436N00107763WA0000000430
B1548223734410N00107754WA0000000429
B1548283734381N00107732WA0000000431
B1548343734367N00107742WA0000000419
B1548403734387N00107729WA0000000415
B1548463734409N00107720WA0000000415
B1548523734430N00107722WA0000000415
B1548583734446N00107732WA0000000419
B1549043734468N00107733WA0000000424
B1549103734489N00107722WA0000000423
B1549163734477N00107736WA0000000419
B1549223734452N00107724WA0000000423
B1549283734429N00107698WA0000000430
B1549343734409N00107700WA0000000426
B1549403734424N00107704WA0000000425
B1549463734440N00107710WA0000000425
B1549523734457N00107723WA0000000427
B1549583734442N00107732WA0000000429
B1550043734417N00107721WA0000000431
B1550103734400N00107726WA0000000430
B1550163734414N00107730WA0000000433
B1550223734436N00107720WA0000000433
B1550283734461N00107706WA0000000434
B1550343734484N00107699WA0000000430
B1550403734475N00107711WA0000000430
B1550463734455N00107702WA0000000432
B1550523734428N00107688WA0000000434
B1550583734408N00107692WA0000000437
B1551043734425N00107691WA0000000438
B1551103734444N00107692WA0000000444
B1551163734463N00107691WA0000000443
B1551223734453N00107701WA0000000438
B1551283734425N00107683WA0000000439
B1551343734420N00107692WA0000000439
B1551403734440N00107687WA0000000444
B1551463734461N00107681WA0000000446
B1551523734469N00107693WA0000000442
B1551583734445N00107678WA0000000445
B1552043734416N00107677WA0000000449
B1552103734422N00107688WA0000000445
B1552163734441N00107685WA0000000441
B1552223734456N00107690WA0000000440
B1552283734431N00107688WA0000000440
B1552343734406N00107691WA0000000444
B1552403734406N00107705WA0000000448
B1552463734418N00107713WA0000000446
B1552523734441N00107700WA0000000450
B1552583734462N00107697WA0000000450
B1553043734444N00107702WA0000000450
B1553103734419N00107687WA0000000451
B1553163734416N00107699WA0000000448
B1553223734438N00107684WA0000000454
B1553283734458N00107678WA0000000453
B1553343734470N00107685WA0000000449
B1553403734447N00107681WA0000000450
B1553463734421N00107676WA0000000450
B1553523734419N00107689WA0000000445
B1553583734438N00107681WA0000000444
B1554043734458N00107676WA0000000441
B1554103734467N00107690WA0000000436
B1554163734446N00107708WA0000000437
B1554223734419N00107691WA0000000436
B1554283734407N00107699WA0000000434
B1554343734427N00107697WA0000000438
B1554403734444N00107701WA0000000441
B1554463734463N00107707WA0000000434
B1554523734445N00107714WA0000000432
B1554583734421N00107689WA0000000434
B1555043734408N00107698WA0000000431
B1555103734427N00107700WA0000000437
B1555163734443N00107702WA0000000438
B1555223734458N00107706WA0000000429
B1555283734441N00107709WA0000000432
B1555343734419N00107681WA0000000429
B1555403734417N00107689WA0000000431
B1555463734436N00107689WA0000000431
B1555523734454N00107688WA0000000433
B1555583734461N00107702WA0000000427
B1556043734458N00107717WA0000000422
B1556103734459N00107733WA0000000423
B1556163734463N00107751WA0000000423
B1556223734470N00107764WA0000000417
B1556283734475N00107779WA0000000410
B1556343734479N00107800WA0000000399
B1556403734490N00107823WA0000000395
B1556463734497N00107838WA0000000396
B1556523734505N00107857WA0000000390
B1556583734518N00107874WA0000000388
B1557043734531N00107891WA0000000382
B1557103734548N00107906WA0000000378
B1557163734567N00107927WA0000000384
B1557223734584N00107940WA0000000380
B1557283734609N00107947WA0000000388
B1557343734627N00107959WA0000000390
B1557403734608N00107960WA0000000396
B1557463734591N00107931WA0000000402
B1557523734581N00107941WA0000000398
B1557583734603N00107944WA0000000403
B1558043734625N00107945WA0000000406
B1558103734647N00107951WA0000000414
B1558163734641N00107962WA0000000414
B1558223734626N00107930WA0000000427
B1558283734611N00107897WA0000000434
B1558343734589N00107877WA0000000431
B1558403734598N00107892WA0000000430
B1558463734608N00107907WA0000000427
B1558523734628N00107918WA0000000429
B1558583734638N00107937WA0000000424
B1559043734631N00107954WA0000000423
B1559103734612N00107964WA0000000417
B1559163734585N00107942WA0000000411
B1559223734564N00107911WA0000000411
B1559283734538N00107891WA0000000408
B1559343734514N00107866WA0000000401
B1559403734487N00107841WA0000000397
B1559463734463N00107801WA0000000399
B1559523734439N00107779WA0000000396
B1559583734412N00107765WA0000000394
B1600043734383N00107745WA0000000396
B1600103734384N00107753WA0000000396
B1600163734407N00107745WA0000000398
B1600223734424N00107750WA0000000395
B1600283734442N00107759WA0000000395
B1600343734448N00107772WA0000000386
B1600403734424N00107764WA0000000381
B1600463734397N00107754WA0000000377
B1600523734381N00107763WA0000000373
B1600583734398N00107766WA0000000370
B1601043734414N00107777WA0000000365
B1601103734423N00107794WA0000000360
B1601163734430N00107810WA0000000352
B1601223734433N00107826WA0000000346
B1601283734430N00107846WA0000000346
B1601343734424N00107864WA0000000343
B1601403734423N00107879WA0000000334
B1601463734402N00107889WA0000000327
B1601523734382N00107897WA0000000321
B1601583734357N00107896WA0000000310
B1602043734332N00107896WA0000000305
B1602103734310N00107901WA0000000311
B1602163734307N00107913WA0000000313
B1602223734320N00107920WA0000000314
B1602283734334N00107922WA0000000312
B1602343734341N00107937WA0000000311
B1602403734319N00107937WA0000000310
B1602463734295N00107930WA0000000302
B1602523734301N00107941WA0000000301
B1602583734321N00107912WA0000000296
B1603043734332N00107913WA0000000295
B1603103734307N00107909WA0000000289
B1603163734293N00107920WA0000000289
B1603223734303N00107926WA0000000289
B1603283734323N00107899WA0000000288
B1603343734340N00107893WA0000000288
B1603403734317N00107897WA0000000291
B1603463734302N00107907WA0000000289
B1603523734324N00107898WA0000000294
B1603583734341N00107877WA0000000301
B1604043734340N00107883WA0000000303
B1604103734313N00107884WA0000000305
B1604163734311N00107896WA0000000308
B1604223734316N00107906WA0000000308
B1604283734332N00107900WA0000000301
B1604343734343N00107912WA0000000297
B1604403734351N00107931WA0000000294
B1604463734356N00107948WA0000000293
B1604523734364N00107963WA0000000293
B1604583734374N00107976WA0000000270
B1605043734383N00107989WA0000000264
B1605103734390N00108007WA0000000267
B1605163734398N00108023WA0000000264
B1605223734408N00108039WA0000000260
B1605283734421N00108054WA0000000265
B1605343734440N00108058WA0000000271
B1605403734462N00108060WA0000000271
B1605463734484N00108058WA0000000274
B1605523734484N00108075WA0000000271
B1605583734460N00108066WA0000000272
B1606043734438N00108046WA0000000277
B1606103734417N00108015WA0000000281
B1606163734415N00108025WA0000000280
B1606223734430N00108035WA0000000285
B1606283734447N00108036WA0000000290
B1606343734468N00108033WA0000000292
B1606403734488N00108036WA0000000293
B1606463734503N00108049WA0000000289
B1606523734525N00108064WA0000000285
B1606583734542N00108086WA0000000289
B1607043734519N00108097WA0000000285
B1607103734495N00108085WA0000000282
B1607163734468N00108074WA0000000276
B1607223734442N00108050WA0000000275
B1607283734420N00108016WA0000000273
B1607343734395N00107982WA0000000275
B1607403734372N00107975WA0000000269
B1607463734377N00107991WA0000000269
B1607523734384N00108010WA0000000271
B1607583734394N00108023WA0000000275
B1608043734407N00108035WA0000000271
B1608103734421N00108046WA0000000270
B1608163734438N00108052WA0000000270
B1608223734459N00108057WA0000000271
B1608283734481N00108062WA0000000272
B1608343734484N00108084WA0000000272
B1608403734461N00108077WA0000000276
B1608463734439N00108051WA0000000280
B1608523734423N00108014WA0000000281
B1608583734402N00108001WA0000000275
B1609043734406N00108019WA0000000273
B1609103734412N00108035WA0000000274
B1609163734419N00108050WA0000000272
B1609223734435N00108057WA0000000274
B1609283734451N00108060WA0000000275
B1609343734472N00108058WA0000000273
B1609403734468N00108073WA0000000272
B1609463734442N00108062WA0000000273
B1609523734420N00108027WA0000000279
B1609583734404N00107991WA0000000281
B1610043734385N00107962WA0000000284
B1610103734368N00107924WA0000000281
B1610163734346N00107899WA0000000275
B1610223734321N00107896WA0000000275
B1610283734308N00107905WA0000000277
B1610343734327N00107901WA0000000281
B1610403734331N00107910WA0000000277
B1610463734339N00107928WA0000000273
B1610523734350N00107946WA0000000266
B1610583734358N00107960WA0000000260
B1611043734360N00107978WA0000000252
B1611103734370N00107992WA0000000256
B1611163734387N00108000WA0000000256
B1611223734392N00108022WA0000000257
B1611283734398N00108040WA0000000257
B1611343734407N00108057WA0000000255
B1611403734425N00108067WA0000000258
B1611463734446N00108074WA0000000259
B1611523734467N00108079WA0000000261
B1611583734471N00108091WA0000000258
B1612043734449N00108076WA0000000261
B1612103734427N00108054WA0000000267
B1612163734410N00108055WA0000000269
B1612223734430N00108061WA0000000275
B1612283734454N00108053WA0000000282
B1612343734462N00108065WA0000000281
B1612403734441N00108050WA0000000283
B1612463734419N00108027WA0000000280
B1612523734416N00108041WA0000000277
B1612583734432N00108046WA0000000281
B1613043734453N00108052WA0000000285
B1613103734465N00108066WA0000000290
B1613163734480N00108080WA0000000294
B1613223734495N00108093WA0000000296
B1613283734512N00108100WA0000000289
B1613343734534N00108095WA0000000283
B1613403734547N00108109WA0000000282
B1613463734551N00108131WA0000000283
B1613523734559N00108152WA0000000286
B1613583734575N00108165WA0000000282
B1614043734594N00108169WA0000000275
B1614103734582N00108176WA0000000274
B1614163734572N00108139WA0000000277
B1614223734557N00108104WA0000000273
B1614283734538N00108087WA0000000277
B1614343734516N00108080WA0000000271
B1614403734494N00108072WA0000000267
B1614463734472N00108063WA0000000268
B1614523734454N00108061WA0000000270
B1614583734432N00108035WA0000000275
B1615043734414N00108029WA0000000274
B1615103734427N00108042WA0000000278
B1615163734446N00108048WA0000000280
B1615223734468N00108052WA0000000280
B1615283734493N00108055WA0000000284
B1615343734510N00108063WA0000000286
B1615403734523N00108073WA0000000281
B1615463734502N00108070WA0000000276
B1615523734475N00108071WA0000000270
B1615583734450N00108062WA0000000273
B1616043734429N00108028WA0000000277
B1616103734413N00107991WA0000000278
B1616163734393N00107971WA0000000276
B1616223734373N00107937WA0000000276
B1616283734351N00107909WA0000000270
B1616343734327N00107895WA0000000267
B1616403734308N00107902WA0000000267
B1616463734294N00107913WA0000000267
B1616523734310N00107910WA0000000269
B1616583734330N00107886WA0000000271
B1617043734348N00107884WA0000000271
B1617103734330N00107889WA0000000274
B1617163734308N00107893WA0000000273
B1617223734298N00107903WA0000000275
B1617283734291N00107915WA0000000275
B1617343734313N00107906WA0000000277
B1617403734334N00107900WA0000000272
B1617463734316N00107905WA0000000272
B1617523734298N00107908WA0000000274
B1617583734297N00107919WA0000000275
B1618043734321N00107898WA0000000275
B1618103734346N00107884WA0000000275
B1618163734351N00107897WA0000000281
B1618223734354N00107905WA0000000281
B1618283734359N00107917WA0000000284
B1618343734368N00107929WA0000000290
B1618403734372N00107940WA0000000286
B1618463734384N00107946WA0000000281
B1618523734394N00107956WA0000000284
B1618583734409N00107962WA0000000288
B1619043734415N00107977WA0000000290
B1619103734420N00107991WA0000000283
B1619163734418N00108006WA0000000281
B1619223734416N00108023WA0000000281
B1619283734428N00108036WA0000000277
B1619343734448N00108041WA0000000280
B1619403734468N00108045WA0000000280
B1619463734492N00108044WA0000000280
B1619523734508N00108053WA0000000278
B1619583734522N00108065WA0000000277
B1620043734527N00108084WA0000000275
B1620103734505N00108080WA0000000269
B1620163734483N00108068WA0000000274
B1620223734459N00108064WA0000000271
B1620283734433N00108045WA0000000270
B1620343734414N00108008WA0000000265
B1620403734390N00107995WA0000000258
B1620463734387N00108017WA0000000248
B1620523734392N00108036WA0000000241
B1620583734398N00108056WA0000000237
B1621043734406N00108069WA0000000233
B1621103734419N00108079WA0000000232
B1621163734434N00108090WA0000000232
B1621223734450N00108102WA0000000229
B1621283734460N00108118WA0000000224
B1621343734437N00108126WA0000000216
B1621403734410N00108108WA0000000211
B1621463734379N00108093WA0000000209
B1621523734356N00108064WA0000000207
B1621583734331N00108043WA0000000206
B1622043734308N00108029WA0000000205
B1622103734283N00108022WA0000000202
B1622163734258N00108016WA0000000205
B1622223734240N00108020WA0000000207
B1622283734221N00108027WA0000000208
B1622343734202N00108034WA0000000209
B1622403734181N00108035WA0000000213
B1622463734187N00108036WA0000000211
B1622523734205N00108022WA0000000214
B1622583734230N00108004WA0000000215
B1623043734256N00107987WA0000000216
B1623103734272N00107980WA0000000225
B1623163734285N00107976WA0000000225
B1623223734260N00107980WA0000000227
B1623283734236N00107986WA0000000236
B1623343734227N00107995WA0000000239
B1623403734247N00107982WA0000000247
B1623463734267N00107960WA0000000256
B1623523734282N00107953WA0000000260
B1623583734268N00107963WA0000000263
B1624043734256N00107979WA0000000272
B1624103734261N00107987WA0000000272
B1624163734284N00107968WA0000000274
B1624223734306N00107941WA0000000280
B1624283734321N00107901WA0000000280
B1624343734343N00107871WA0000000277
B1624403734358N00107873WA0000000280
B1624463734333N00107874WA0000000280
B1624523734313N00107879WA0000000287
B1624583734321N00107884WA0000000290
B1625043734339N00107883WA0000000292
B1625103734332N00107896WA0000000291
B1625163734327N00107910WA0000000286
B1625223734338N00107923WA0000000280
B1625283734353N00107936WA0000000275
B1625343734361N00107948WA0000000272
B1625403734373N00107959WA0000000274
B1625463734384N00107969WA0000000277
B1625523734402N00107973WA0000000280
B1625583734413N00107987WA0000000278
B1626043734415N00108011WA0000000276
B1626103734409N00108027WA0000000271
B1626163734407N00108042WA0000000268
B1626223734419N00108054WA0000000271
B1626283734435N00108059WA0000000275
B1626343734455N00108059WA0000000276
B1626403734477N00108052WA0000000276
B1626463734496N00108057WA0000000276
B1626523734512N00108071WA0000000279
B1626583734532N00108081WA0000000279
B1627043734537N00108101WA0000000277
B1627103734543N00108123WA0000000279
B1627163734551N00108144WA0000000275
B1627223734568N00108160WA0000000273
B1627283734590N00108166WA0000000276
B1627343734614N00108171WA0000000272
B1627403734628N00108184WA0000000269
B1627463734606N00108182WA0000000266
B1627523734583N00108170WA0000000266
B1627583734565N00108134WA0000000269
B1628043734547N00108117WA0000000269
B1628103734532N00108093WA0000000267
B1628163734515N00108096WA0000000258
B1628223734491N00108091WA0000000251
B1628283734472N00108098WA0000000248
B1628343734452N00108099WA0000000247
B1628403734432N00108080WA0000000252
B1628463734408N00108059WA0000000257
B1628523734416N00108067WA0000000254
B1628583734436N00108068WA0000000257
B1629043734458N00108069WA0000000260
B1629103734488N00108059WA0000000263
B1629163734505N00108063WA0000000264
B1629223734519N00108074WA0000000264
B1629283734526N00108090WA0000000262
B1629343734507N00108076WA0000000263
B1629403734484N00108074WA0000000263
B1629463734466N00108079WA0000000262
B1629523734444N00108063WA0000000261
B1629583734419N00108039WA0000000262
B1630043734395N00108025WA0000000254
B1630103734395N00108042WA0000000245
B1630163734403N00108056WA0000000243
B1630223734415N00108064WA0000000241
B1630283734428N00108071WA0000000240
B1630343734442N00108080WA0000000242
B1630403734461N00108088WA0000000243
B1630463734487N00108090WA0000000245
B1630523734472N00108098WA0000000241
B1630583734448N00108091WA0000000238
B1631043734421N00108073WA0000000238
B1631103734394N00108051WA0000000234
B1631163734375N00108013WA0000000233
B1631223734348N00107990WA0000000233
B1631283734320N00107983WA0000000229
B1631343734304N00107987WA0000000231
B1631403734298N00108003WA0000000234
B1631463734297N00108017WA0000000236
B1631523734315N00108016WA0000000234
B1631583734336N00108007WA0000000231
B1632043734355N00108008WA0000000232
B1632103734349N00108021WA0000000229
B1632163734321N00108005WA0000000234
B1632223734297N00107994WA0000000230
B1632283734270N00107984WA0000000229
B1632343734245N00107986WA0000000231
B1632403734223N00107985WA0000000240
B1632463734216N00107992WA0000000242
B1632523734235N00107978WA0000000247
B1632583734248N00107977WA0000000261
B1633043734231N00107984WA0000000260
B1633103734225N00107992WA0000000252
B1633163734245N00107980WA0000000258
B1633223734262N00107976WA0000000268
B1633283734279N00107946WA0000000274
B1633343734290N00107908WA0000000275
B1633403734310N00107893WA0000000273
B1633463734334N00107884WA0000000273
B1633523734355N00107871WA0000000273
B1633583734338N00107879WA0000000274
B1634043734316N00107884WA0000000273
B1634103734335N00107878WA0000000270
B1634163734356N00107859WA0000000270
B1634223734344N00107864WA0000000272
B1634283734323N00107870WA0000000276
B1634343734310N00107883WA0000000281
B1634403734318N00107888WA0000000279
B1634463734341N00107865WA0000000280
B1634523734359N00107854WA0000000280
B1634583734340N00107862WA0000000281
B1635043734316N00107867WA0000000280
B1635103734329N00107868WA0000000281
B1635163734348N00107866WA0000000283
B1635223734352N00107886WA0000000285
B1635283734360N00107906WA0000000284
B1635343734364N00107927WA0000000284
B1635403734365N00107948WA0000000282
B1635463734369N00107964WA0000000279
B1635523734370N00107979WA0000000276
B1635583734374N00107994WA0000000275
B1636043734392N00108000WA0000000272
B1636103734393N00108016WA0000000270
B1636163734399N00108036WA0000000270
B1636223734405N00108052WA0000000267
B1636283734418N00108061WA0000000267
B1636343734433N00108061WA0000000272
B1636403734449N00108066WA0000000273
B1636463734466N00108065WA0000000271
B1636523734492N00108055WA0000000269
B1636583734482N00108081WA0000000268
B1637043734465N00108091WA0000000261
B1637103734438N00108082WA0000000258
B1637163734413N00108070WA0000000262
B1637223734420N00108076WA0000000265
B1637283734440N00108069WA0000000269
B1637343734451N00108078WA0000000271
B1637403734428N00108070WA0000000270
B1637463734405N00108053WA0000000265
B1637523734418N00108058WA0000000266
B1637583734435N00108058WA0000000270
B1638043734452N00108062WA0000000272
B1638103734463N00108074WA0000000273
B1638163734459N00108090WA0000000272
B1638223734433N00108076WA0000000272
B1638283734408N00108046WA0000000264
B1638343734391N00108005WA0000000257
B1638403734367N00108002WA0000000259
B1638463734376N00108012WA0000000253
B1638523734389N00108023WA0000000252
B1638583734395N00108038WA0000000252
B1639043734402N00108056WA0000000252
B1639103734411N00108070WA0000000251
B1639163734423N00108081WA0000000250
B1639223734434N00108095WA0000000248
B1639283734438N00108114WA0000000243
B1639343734413N00108106WA0000000237
B1639403734388N00108077WA0000000234
B1639463734371N00108038WA0000000234
B1639523734344N00108015WA0000000235
B1639583734319N00108015WA0000000227
B1640043734296N00108017WA0000000224
B1640103734267N00108007WA0000000225
B1640163734242N00108008WA0000000229
B1640223734221N00108013WA0000000232
B1640283734206N00108021WA0000000230
B1640343734224N00108016WA0000000227
B1640403734248N00108001WA0000000227
B1640463734268N00107994WA0000000227
B1640523734287N00107994WA0000000229
B1640583734282N00108006WA0000000234
B1641043734293N00108012WA0000000231
B1641103734300N00108019WA0000000229
B1641163734272N00108006WA0000000227
B1641223734249N00108006WA0000000227
B1641283734268N00108001WA0000000226
B1641343734288N00107990WA0000000226
B1641403734289N00107997WA0000000226
B1641463734261N00107992WA0000000227
B1641523734235N00107997WA0000000226
B1641583734226N00108015WA0000000239
B1642043734231N00108023WA0000000241
B1642103734251N00108014WA0000000239
B1642163734270N00107981WA0000000248
B1642223734282N00107967WA0000000252
B1642283734263N00107978WA0000000252
B1642343734236N00107972WA0000000257
B1642403734229N00107981WA0000000258
B1642463734245N00107964WA0000000262
B1642523734258N00107949WA0000000267
B1642583734276N00107928WA0000000267
B1643043734294N00107910WA0000000268
B1643103734307N00107901WA0000000271
B1643163734320N00107901WA0000000271
B1643223734298N00107910WA0000000273
B1643283734288N00107924WA0000000272
B1643343734307N00107909WA0000000276
B1643403734325N00107896WA0000000277
B1643463734330N00107913WA0000000276
B1643523734334N00107932WA0000000276
B1643583734336N00107946WA0000000276
B1644043734343N00107962WA0000000276
B1644103734346N00107974WA0000000275
B1644163734351N00107985WA0000000275
B1644223734367N00107992WA0000000275
B1644283734384N00107997WA0000000272
B1644343734404N00107990WA0000000270
B1644403734406N00108011WA0000000268
B1644463734408N00108034WA0000000267
B1644523734409N00108053WA0000000270
B1644583734424N00108067WA0000000273
B1645043734443N00108073WA0000000269
B1645103734467N00108076WA0000000265
B1645163734478N00108087WA0000000262
B1645223734457N00108082WA0000000258
B1645283734436N00108071WA0000000259
B1645343734414N00108051WA0000000259
B1645403734396N00108015WA0000000252
B1645463734371N00107996WA0000000250
B1645523734342N00107972WA0000000245
B1645583734317N00107969WA0000000239
B1646043734301N00107984WA0000000230
B1646103734277N00107993WA0000000227
B1646163734249N00107990WA0000000225
B1646223734224N00107996WA0000000226
B1646283734206N00108016WA0000000225
B1646343734204N00108030WA0000000227
B1646403734218N00108023WA0000000232
B1646463734229N00108001WA0000000236
B1646523734238N00107969WA0000000240
B1646583734252N00107963WA0000000243
B1647043734269N00107960WA0000000242
B1647103734273N00107970WA0000000243
B1647163734245N00107968WA0000000240
B1647223734224N00107979WA0000000239
B1647283734229N00107987WA0000000235
B1647343734240N00107981WA0000000235
B1647403734256N00107974WA0000000234
B1647463734274N00107971WA0000000233
B1647523734291N00107972WA0000000233
B1647583734279N00107985WA0000000228
B1648043734250N00107983WA0000000227
B1648103734225N00107993WA0000000230
B1648163734214N00108009WA0000000235
B1648223734218N00108021WA0000000239
B1648283734211N00108036WA0000000238
B1648343734210N00108054WA0000000235
B1648403734212N00108072WA0000000231
B1648463734213N00108091WA0000000223
B1648523734214N00108109WA0000000221
B1648583734225N00108119WA0000000221
B1649043734224N00108138WA0000000216
B1649103734219N00108160WA0000000209
B1649163734218N00108180WA0000000205
B1649223734216N00108198WA0000000201
B1649283734212N00108217WA0000000192
B1649343734212N00108238WA0000000186
B1649403734208N00108258WA0000000177
B1649463734202N00108279WA0000000170
B1649523734201N00108303WA0000000166
B1649583734197N00108329WA0000000158
B1650043734195N00108353WA0000000150
B1650103734192N00108369WA0000000141
B1650163734182N00108383WA0000000132
B1650223734191N00108392WA0000000131
B1650283734210N00108395WA0000000123
B1650343734205N00108407WA0000000116
LXCG     VERSION:5.7
GAA23DE954311EC11EF85085E5A7381087CA261BDA3793598C3ACA49F9D589AAE5F662
G502F000D299A4302AE41CBD42E7756BC6663A8A6AF8E59143B7693C749655E6C238
G20ECCE07CC1E34EACC51D613D9F518DF88F640A1471052AE64228FE5448DEB9BA42
GBAC0AEB7844206F62CB0E1E838B69980D20343548955F4A2D3B819932C394